createdAt,value
2017-08-01T00:00:38.751Z,20.32
2017-08-01T00:01:38.748Z,20.3
2017-08-01T00:02:38.445Z,20.18
2017-08-01T00:03:38.748Z,20.22
2017-08-01T00:04:38.743Z,20.14
2017-08-01T00:05:38.747Z,20.12
2017-08-01T00:06:38.737Z,20.12
2017-08-01T00:07:38.741Z,20.15
2017-08-01T00:08:38.838Z,20.14
2017-08-01T00:09:38.732Z,20.08
2017-08-01T00:10:38.727Z,20.11
2017-08-01T00:11:38.723Z,20.11
2017-08-01T00:12:38.822Z,20.11
2017-08-01T00:13:38.720Z,20.1
2017-08-01T00:14:38.824Z,20.14
2017-08-01T00:15:38.718Z,20.14
2017-08-01T00:16:38.819Z,20.07
2017-08-01T00:17:38.714Z,20.07
2017-08-01T00:18:38.708Z,20.08
2017-08-01T00:19:38.813Z,19.96
2017-08-01T00:20:38.703Z,20.07
2017-08-01T00:21:38.707Z,19.94
2017-08-01T00:22:38.403Z,19.99
2017-08-01T00:23:38.700Z,19.92
2017-08-01T00:24:38.698Z,19.93
2017-08-01T00:25:38.698Z,19.96
2017-08-01T00:26:38.694Z,19.93
2017-08-01T00:27:38.688Z,19.94
2017-08-01T00:28:38.788Z,19.93
2017-08-01T00:29:38.685Z,19.94
2017-08-01T00:30:38.687Z,19.89
2017-08-01T00:31:38.684Z,19.84
2017-08-01T00:32:38.778Z,19.85
2017-08-01T00:33:38.676Z,19.84
2017-08-01T00:34:38.677Z,19.87
2017-08-01T00:35:38.677Z,19.82
2017-08-01T00:36:38.668Z,19.85
2017-08-01T00:37:38.772Z,19.87
2017-08-01T00:38:38.692Z,19.89
2017-08-01T00:39:38.763Z,19.84
2017-08-01T00:40:38.656Z,19.79
2017-08-01T00:41:38.362Z,19.78
2017-08-01T00:42:38.348Z,19.77
2017-08-01T00:43:38.752Z,19.81
2017-08-01T00:44:38.656Z,19.82
2017-08-01T00:45:38.658Z,19.77
2017-08-01T00:46:38.647Z,19.81
2017-08-01T00:47:38.647Z,19.81
2017-08-01T00:48:38.640Z,19.78
2017-08-01T00:49:38.644Z,19.7
2017-08-01T00:50:38.635Z,19.71
2017-08-01T00:51:38.633Z,19.71
2017-08-01T00:52:38.633Z,19.57
2017-08-01T00:53:38.635Z,19.66
2017-08-01T00:54:38.422Z,19.62
2017-08-01T00:55:38.654Z,19.59
2017-08-01T00:56:38.623Z,19.59
2017-08-01T00:57:38.628Z,19.56
2017-08-01T00:58:38.624Z,19.53
2017-08-01T00:59:38.715Z,19.6
2017-08-01T01:00:38.629Z,19.63
2017-08-01T01:01:38.616Z,19.55
2017-08-01T01:02:38.707Z,19.53
2017-08-01T01:03:38.605Z,19.56
2017-08-01T01:04:38.621Z,19.53
2017-08-01T01:05:38.601Z,19.57
2017-08-01T01:06:38.616Z,19.53
2017-08-01T01:07:38.599Z,19.42
2017-08-01T01:08:38.693Z,19.48
2017-08-01T01:09:38.841Z,19.52
2017-08-01T01:10:38.691Z,19.47
2017-08-01T01:11:38.586Z,19.52
2017-08-01T01:12:38.276Z,19.55
2017-08-01T01:13:38.381Z,19.55
2017-08-01T01:14:38.781Z,19.48
2017-08-01T01:15:38.277Z,19.53
2017-08-01T01:16:38.577Z,19.48
2017-08-01T01:17:38.575Z,19.52
2017-08-01T01:18:38.672Z,19.55
2017-08-01T01:19:38.570Z,19.49
2017-08-01T01:20:38.566Z,19.41
2017-08-01T01:21:38.668Z,19.42
2017-08-01T01:22:38.560Z,19.48
2017-08-01T01:23:38.566Z,19.49
2017-08-01T01:24:38.557Z,19.52
2017-08-01T01:25:38.551Z,19.53
2017-08-01T01:26:38.551Z,19.52
2017-08-01T01:27:38.548Z,19.55
2017-08-01T01:28:38.563Z,19.53
2017-08-01T01:29:38.542Z,19.56
2017-08-01T01:30:38.644Z,19.52
2017-08-01T01:31:38.540Z,19.57
2017-08-01T01:32:38.542Z,19.56
2017-08-01T01:33:38.535Z,19.56
2017-08-01T01:34:38.551Z,19.55
2017-08-01T01:35:38.526Z,19.55
2017-08-01T01:36:38.525Z,19.56
2017-08-01T01:37:38.523Z,19.57
2017-08-01T01:38:38.521Z,19.56
2017-08-01T01:39:38.520Z,19.56
2017-08-01T01:40:38.519Z,19.56
2017-08-01T01:41:38.618Z,19.59
2017-08-01T01:42:38.519Z,19.55
2017-08-01T01:43:38.511Z,19.57
2017-08-01T01:44:38.608Z,19.62
2017-08-01T01:45:38.508Z,19.55
2017-08-01T01:46:38.605Z,19.52
2017-08-01T01:47:38.503Z,19.59
2017-08-01T01:48:38.497Z,19.56
2017-08-01T01:49:38.593Z,19.52
2017-08-01T01:50:38.491Z,19.44
2017-08-01T01:51:38.496Z,19.49
2017-08-01T01:52:38.494Z,19.41
2017-08-01T01:53:38.491Z,19.47
2017-08-01T01:54:38.588Z,19.44
2017-08-01T01:55:38.481Z,19.42
2017-08-01T01:56:38.180Z,19.47
2017-08-01T01:57:38.576Z,19.39
2017-08-01T01:58:38.475Z,19.34
2017-08-01T01:59:38.163Z,19.35
2017-08-01T02:00:38.469Z,19.29
2017-08-01T02:01:38.463Z,19.38
2017-08-01T02:02:38.562Z,19.29
2017-08-01T02:03:38.464Z,19.37
2017-08-01T02:04:38.561Z,19.26
2017-08-01T02:05:38.489Z,19.27
2017-08-01T02:06:38.452Z,19.37
2017-08-01T02:07:38.453Z,19.27
2017-08-01T02:08:38.455Z,19.39
2017-08-01T02:09:38.551Z,19.41
2017-08-01T02:10:38.548Z,19.41
2017-08-01T02:11:38.443Z,19.35
2017-08-01T02:12:38.441Z,19.41
2017-08-01T02:13:38.438Z,19.38
2017-08-01T02:14:38.541Z,19.44
2017-08-01T02:15:38.127Z,19.41
2017-08-01T02:16:38.434Z,19.44
2017-08-01T02:17:38.426Z,19.38
2017-08-01T02:18:38.430Z,19.47
2017-08-01T02:19:38.424Z,19.37
2017-08-01T02:20:38.423Z,19.39
2017-08-01T02:21:38.113Z,19.37
2017-08-01T02:22:38.513Z,19.37
2017-08-01T02:23:38.413Z,19.38
2017-08-01T02:24:38.409Z,19.35
2017-08-01T02:25:38.517Z,19.29
2017-08-01T02:26:38.406Z,19.29
2017-08-01T02:27:38.405Z,19.24
2017-08-01T02:28:38.400Z,19.29
2017-08-01T02:29:38.396Z,19.26
2017-08-01T02:30:38.414Z,19.22
2017-08-01T02:31:38.396Z,19.16
2017-08-01T02:32:38.184Z,19.15
2017-08-01T02:33:38.397Z,19.12
2017-08-01T02:34:38.390Z,19.2
2017-08-01T02:35:38.488Z,19.08
2017-08-01T02:36:38.584Z,19.07
2017-08-01T02:37:38.384Z,19.01
2017-08-01T02:38:38.484Z,19.01
2017-08-01T02:39:38.377Z,18.96
2017-08-01T02:40:38.472Z,18.92
2017-08-01T02:41:38.365Z,18.94
2017-08-01T02:42:38.370Z,18.94
2017-08-01T02:43:38.366Z,18.92
2017-08-01T02:44:38.056Z,18.97
2017-08-01T02:45:38.358Z,18.89
2017-08-01T02:46:38.301Z,18.88
2017-08-01T02:47:38.045Z,18.92
2017-08-01T02:48:38.351Z,18.91
2017-08-01T02:49:38.046Z,18.89
2017-08-01T02:50:38.358Z,18.94
2017-08-01T02:51:38.471Z,18.89
2017-08-01T02:52:38.345Z,18.82
2017-08-01T02:53:38.446Z,18.79
2017-08-01T02:54:38.336Z,18.81
2017-08-01T02:55:38.338Z,18.81
2017-08-01T02:56:38.334Z,18.74
2017-08-01T02:57:38.040Z,18.86
2017-08-01T02:58:38.427Z,18.85
2017-08-01T02:59:38.326Z,18.81
2017-08-01T03:00:38.125Z,18.71
2017-08-01T03:01:38.320Z,18.82
2017-08-01T03:02:38.418Z,18.74
2017-08-01T03:03:38.316Z,18.83
2017-08-01T03:04:38.411Z,18.71
2017-08-01T03:05:38.327Z,18.74
2017-08-01T03:06:38.303Z,18.7
2017-08-01T03:07:38.405Z,18.78
2017-08-01T03:08:38.402Z,18.71
2017-08-01T03:09:38.400Z,18.76
2017-08-01T03:10:38.299Z,18.71
2017-08-01T03:11:38.295Z,18.67
2017-08-01T03:12:38.289Z,18.7
2017-08-01T03:13:38.289Z,18.66
2017-08-01T03:14:37.980Z,18.64
2017-08-01T03:15:37.980Z,18.67
2017-08-01T03:16:38.278Z,18.67
2017-08-01T03:17:37.979Z,18.67
2017-08-01T03:18:38.277Z,18.68
2017-08-01T03:19:38.277Z,18.68
2017-08-01T03:20:38.268Z,18.7
2017-08-01T03:21:38.374Z,18.6
2017-08-01T03:22:38.364Z,18.61
2017-08-01T03:23:38.265Z,18.63
2017-08-01T03:24:38.258Z,18.61
2017-08-01T03:25:38.258Z,18.55
2017-08-01T03:26:38.257Z,18.49
2017-08-01T03:27:38.353Z,18.55
2017-08-01T03:28:38.247Z,18.51
2017-08-01T03:29:38.246Z,18.48
2017-08-01T03:30:38.246Z,18.45
2017-08-01T03:31:38.246Z,18.48
2017-08-01T03:32:38.236Z,18.42
2017-08-01T03:33:38.238Z,18.42
2017-08-01T03:34:38.239Z,18.42
2017-08-01T03:35:38.234Z,18.45
2017-08-01T03:36:37.926Z,18.39
2017-08-01T03:37:38.232Z,18.33
2017-08-01T03:38:38.224Z,18.43
2017-08-01T03:39:38.421Z,18.43
2017-08-01T03:40:38.320Z,18.39
2017-08-01T03:41:38.213Z,18.31
2017-08-01T03:42:38.214Z,18.26
2017-08-01T03:43:38.211Z,18.31
2017-08-01T03:44:38.212Z,18.3
2017-08-01T03:45:38.207Z,18.34
2017-08-01T03:46:38.204Z,18.31
2017-08-01T03:47:38.202Z,18.34
2017-08-01T03:48:38.198Z,18.26
2017-08-01T03:49:38.298Z,18.34
2017-08-01T03:50:38.392Z,18.26
2017-08-01T03:51:38.196Z,18.3
2017-08-01T03:52:38.191Z,18.34
2017-08-01T03:53:38.183Z,18.36
2017-08-01T03:54:38.185Z,18.31
2017-08-01T03:55:38.181Z,18.3
2017-08-01T03:56:38.278Z,18.28
2017-08-01T03:57:38.172Z,18.23
2017-08-01T03:58:38.177Z,18.24
2017-08-01T03:59:38.176Z,18.31
2017-08-01T04:00:37.862Z,18.3
2017-08-01T04:01:38.261Z,18.3
2017-08-01T04:02:38.166Z,18.33
2017-08-01T04:03:38.255Z,18.27
2017-08-01T04:04:38.162Z,18.3
2017-08-01T04:05:38.154Z,18.31
2017-08-01T04:06:38.149Z,18.27
2017-08-01T04:07:38.150Z,18.43
2017-08-01T04:08:38.146Z,18.41
2017-08-01T04:09:38.150Z,18.39
2017-08-01T04:10:37.837Z,18.41
2017-08-01T04:11:38.140Z,18.41
2017-08-01T04:12:38.134Z,18.45
2017-08-01T04:13:38.132Z,18.41
2017-08-01T04:14:37.835Z,18.45
2017-08-01T04:15:37.920Z,18.45
2017-08-01T04:16:38.228Z,18.48
2017-08-01T04:17:38.123Z,18.48
2017-08-01T04:18:38.119Z,18.48
2017-08-01T04:19:38.112Z,18.52
2017-08-01T04:20:37.806Z,18.48
2017-08-01T04:21:38.311Z,18.55
2017-08-01T04:22:38.110Z,18.61
2017-08-01T04:23:38.104Z,18.53
2017-08-01T04:24:37.897Z,18.64
2017-08-01T04:25:38.103Z,18.64
2017-08-01T04:26:38.199Z,18.7
2017-08-01T04:27:37.890Z,18.71
2017-08-01T04:28:38.091Z,18.73
2017-08-01T04:29:38.099Z,18.73
2017-08-01T04:30:38.187Z,18.82
2017-08-01T04:31:38.082Z,18.82
2017-08-01T04:32:38.185Z,18.81
2017-08-01T04:33:38.082Z,18.83
2017-08-01T04:34:38.074Z,18.88
2017-08-01T04:35:38.225Z,18.88
2017-08-01T04:36:37.787Z,18.92
2017-08-01T04:37:38.066Z,18.94
2017-08-01T04:38:38.066Z,18.97
2017-08-01T04:39:37.759Z,18.86
2017-08-01T04:40:38.061Z,18.98
2017-08-01T04:41:37.763Z,19.04
2017-08-01T04:42:38.074Z,19
2017-08-01T04:43:38.157Z,19
2017-08-01T04:44:38.054Z,19.07
2017-08-01T04:45:38.049Z,19.19
2017-08-01T04:46:38.196Z,19.48
2017-08-01T04:47:38.146Z,19.57
2017-08-01T04:48:38.042Z,19.82
2017-08-01T04:49:38.039Z,20.21
2017-08-01T04:50:38.043Z,20.48
2017-08-01T04:51:38.133Z,20.89
2017-08-01T04:52:38.029Z,21.14
2017-08-01T04:53:38.026Z,21.43
2017-08-01T04:54:38.026Z,21.62
2017-08-01T04:55:38.025Z,21.92
2017-08-01T04:56:38.023Z,22.21
2017-08-01T04:57:38.120Z,22.43
2017-08-01T04:58:38.014Z,22.65
2017-08-01T04:59:38.016Z,22.76
2017-08-01T05:00:38.013Z,22.99
2017-08-01T05:01:37.709Z,23.08
2017-08-01T05:02:38.008Z,23.2
2017-08-01T05:03:38.000Z,23.26
2017-08-01T05:04:37.696Z,23.47
2017-08-01T05:05:38.098Z,23.64
2017-08-01T05:06:38.099Z,23.76
2017-08-01T05:07:37.997Z,23.96
2017-08-01T05:08:37.995Z,24.22
2017-08-01T05:09:37.999Z,24.37
2017-08-01T05:10:37.682Z,24.65
2017-08-01T05:11:38.096Z,24.66
2017-08-01T05:12:38.003Z,24.69
2017-08-01T05:13:37.992Z,24.84
2017-08-01T05:14:38.086Z,24.93
2017-08-01T05:15:37.988Z,25.12
2017-08-01T05:16:37.977Z,25.24
2017-08-01T05:17:37.982Z,25.31
2017-08-01T05:18:37.972Z,25.4
2017-08-01T05:19:37.769Z,25.73
2017-08-01T05:20:37.973Z,25.89
2017-08-01T05:21:37.971Z,26.15
2017-08-01T05:22:37.661Z,26.36
2017-08-01T05:23:37.971Z,26.6
2017-08-01T05:24:38.065Z,26.7
2017-08-01T05:25:37.961Z,26.88
2017-08-01T05:26:37.961Z,27.05
2017-08-01T05:27:38.061Z,27.28
2017-08-01T05:28:37.961Z,27.47
2017-08-01T05:29:37.960Z,27.75
2017-08-01T05:30:37.956Z,27.83
2017-08-01T05:31:37.957Z,27.91
2017-08-01T05:32:38.051Z,28.08
2017-08-01T05:33:37.954Z,27.95
2017-08-01T05:34:38.053Z,27.94
2017-08-01T05:35:38.048Z,27.97
2017-08-01T05:36:37.949Z,28.08
2017-08-01T05:37:38.049Z,27.91
2017-08-01T05:38:38.047Z,27.75
2017-08-01T05:39:38.054Z,27.23
2017-08-01T05:40:38.045Z,26.81
2017-08-01T05:41:37.738Z,26.51
2017-08-01T05:42:38.047Z,26.24
2017-08-01T05:43:37.940Z,26.37
2017-08-01T05:44:38.045Z,26.59
2017-08-01T05:45:37.942Z,26.79
2017-08-01T05:46:37.938Z,27.05
2017-08-01T05:47:37.638Z,27.3
2017-08-01T05:48:37.632Z,27.47
2017-08-01T05:49:37.939Z,27.33
2017-08-01T05:50:38.034Z,27.08
2017-08-01T05:51:38.036Z,26.79
2017-08-01T05:52:37.935Z,26.56
2017-08-01T05:53:37.933Z,26.24
2017-08-01T05:54:37.932Z,26.08
2017-08-01T05:55:37.927Z,25.8
2017-08-01T05:56:38.028Z,25.7
2017-08-01T05:57:38.029Z,25.52
2017-08-01T05:58:38.032Z,25.37
2017-08-01T05:59:37.933Z,25.33
2017-08-01T06:00:37.934Z,25.33
2017-08-01T06:01:37.619Z,25.44
2017-08-01T06:02:37.930Z,25.7
2017-08-01T06:03:38.030Z,25.86
2017-08-01T06:04:37.931Z,26.01
2017-08-01T06:05:37.924Z,25.83
2017-08-01T06:06:38.025Z,25.62
2017-08-01T06:07:37.924Z,25.37
2017-08-01T06:08:38.018Z,25.25
2017-08-01T06:09:37.916Z,25.11
2017-08-01T06:10:37.921Z,24.82
2017-08-01T06:11:37.924Z,24.62
2017-08-01T06:12:38.016Z,24.4
2017-08-01T06:13:37.913Z,24.16
2017-08-01T06:14:38.012Z,23.99
2017-08-01T06:15:37.913Z,23.88
2017-08-01T06:16:38.110Z,23.92
2017-08-01T06:17:37.922Z,24.4
2017-08-01T06:18:37.705Z,24.78
2017-08-01T06:19:38.006Z,24.88
2017-08-01T06:20:37.601Z,25.15
2017-08-01T06:21:37.705Z,25.63
2017-08-01T06:22:37.905Z,26.1
2017-08-01T06:23:37.910Z,26.91
2017-08-01T06:24:38.000Z,27.55
2017-08-01T06:25:37.902Z,28.2
2017-08-01T06:26:37.596Z,28.64
2017-08-01T06:27:38.012Z,29.18
2017-08-01T06:28:37.899Z,29.44
2017-08-01T06:29:37.900Z,29.94
2017-08-01T06:30:37.900Z,30.1
2017-08-01T06:31:37.593Z,30.32
2017-08-01T06:32:38.007Z,30.61
2017-08-01T06:33:37.896Z,30.95
2017-08-01T06:34:38.001Z,31.11
2017-08-01T06:35:37.692Z,30.99
2017-08-01T06:36:37.902Z,30.88
2017-08-01T06:37:37.901Z,30.92
2017-08-01T06:38:37.908Z,31.17
2017-08-01T06:39:37.901Z,31.51
2017-08-01T06:40:37.907Z,31.67
2017-08-01T06:41:37.914Z,32
2017-08-01T06:42:37.924Z,32.31
2017-08-01T06:43:37.912Z,32.34
2017-08-01T06:44:37.908Z,32.24
2017-08-01T06:45:37.918Z,32.22
2017-08-01T06:46:38.014Z,31.73
2017-08-01T06:47:37.912Z,31.29
2017-08-01T06:48:38.012Z,30.67
2017-08-01T06:49:37.923Z,30.33
2017-08-01T06:50:37.918Z,30.46
2017-08-01T06:51:38.019Z,30.85
2017-08-01T06:52:37.920Z,31.37
2017-08-01T06:53:38.018Z,31.64
2017-08-01T06:54:37.620Z,32.11
2017-08-01T06:55:37.628Z,32.44
2017-08-01T06:56:38.030Z,32.85
2017-08-01T06:57:37.926Z,32.63
2017-08-01T06:58:37.626Z,32.34
2017-08-01T06:59:37.929Z,32.39
2017-08-01T07:00:37.931Z,32.64
2017-08-01T07:01:37.624Z,32.95
2017-08-01T07:02:37.929Z,33.2
2017-08-01T07:03:37.939Z,33.58
2017-08-01T07:04:37.933Z,33.87
2017-08-01T07:05:37.933Z,34.19
2017-08-01T07:06:37.938Z,34.48
2017-08-01T07:07:37.943Z,34.69
2017-08-01T07:08:38.040Z,34.71
2017-08-01T07:09:37.942Z,34.59
2017-08-01T07:10:37.942Z,34.62
2017-08-01T07:11:37.946Z,34.73
2017-08-01T07:12:37.959Z,34.88
2017-08-01T07:13:38.146Z,35.16
2017-08-01T07:14:37.948Z,35.37
2017-08-01T07:15:38.054Z,35.52
2017-08-01T07:16:37.644Z,35.66
2017-08-01T07:17:37.955Z,35.74
2017-08-01T07:18:37.953Z,35.86
2017-08-01T07:19:38.107Z,36.01
2017-08-01T07:20:37.752Z,36.06
2017-08-01T07:21:37.962Z,36.32
2017-08-01T07:22:37.755Z,36.38
2017-08-01T07:23:37.957Z,36.48
2017-08-01T07:24:38.062Z,36.39
2017-08-01T07:25:38.063Z,36.33
2017-08-01T07:26:37.970Z,36.06
2017-08-01T07:27:37.658Z,35.47
2017-08-01T07:28:38.071Z,35.08
2017-08-01T07:29:37.968Z,35.05
2017-08-01T07:30:38.067Z,34.75
2017-08-01T07:31:37.967Z,34.79
2017-08-01T07:32:37.972Z,34.53
2017-08-01T07:33:37.358Z,34.44
2017-08-01T07:34:38.126Z,34.44
2017-08-01T07:35:37.968Z,34.24
2017-08-01T07:36:37.667Z,33.94
2017-08-01T07:37:37.974Z,33.77
2017-08-01T07:38:37.979Z,33.87
2017-08-01T07:39:38.126Z,33.65
2017-08-01T07:40:37.986Z,33.6
2017-08-01T07:41:37.978Z,33.44
2017-08-01T07:42:37.979Z,33.32
2017-08-01T07:43:37.979Z,33.12
2017-08-01T07:44:38.080Z,32.91
2017-08-01T07:45:37.992Z,32.61
2017-08-01T07:46:37.983Z,32.61
2017-08-01T07:47:37.674Z,32.64
2017-08-01T07:48:38.000Z,32.85
2017-08-01T07:49:38.184Z,32.91
2017-08-01T07:50:38.134Z,32.93
2017-08-01T07:51:37.985Z,32.9
2017-08-01T07:52:37.985Z,32.86
2017-08-01T07:53:37.987Z,32.97
2017-08-01T07:54:37.986Z,33.1
2017-08-01T07:55:37.990Z,32.91
2017-08-01T07:56:38.098Z,32.46
2017-08-01T07:57:37.690Z,32.07
2017-08-01T07:58:37.686Z,32.05
2017-08-01T07:59:37.991Z,32.37
2017-08-01T08:00:37.889Z,32.59
2017-08-01T08:01:38.089Z,32.98
2017-08-01T08:02:38.096Z,32.88
2017-08-01T08:03:37.995Z,32.82
2017-08-01T08:04:37.997Z,32.9
2017-08-01T08:05:38.214Z,32.82
2017-08-01T08:06:37.994Z,32.66
2017-08-01T08:07:37.994Z,31.86
2017-08-01T08:08:38.002Z,31.44
2017-08-01T08:09:37.998Z,31.1
2017-08-01T08:10:38.097Z,30.67
2017-08-01T08:11:38.162Z,30.38
2017-08-01T08:12:38.002Z,30.48
2017-08-01T08:13:38.005Z,30.85
2017-08-01T08:14:37.999Z,31.14
2017-08-01T08:15:38.009Z,31.33
2017-08-01T08:16:38.099Z,31.51
2017-08-01T08:17:38.002Z,31.67
2017-08-01T08:18:37.695Z,32.02
2017-08-01T08:19:38.097Z,32.27
2017-08-01T08:20:38.104Z,32.45
2017-08-01T08:21:38.003Z,32.42
2017-08-01T08:22:38.004Z,32.26
2017-08-01T08:23:37.700Z,32.27
2017-08-01T08:24:37.999Z,32.27
2017-08-01T08:25:38.000Z,32.3
2017-08-01T08:26:38.000Z,32.38
2017-08-01T08:27:38.001Z,32.31
2017-08-01T08:28:38.102Z,32.48
2017-08-01T08:29:37.998Z,32.81
2017-08-01T08:30:38.005Z,33.05
2017-08-01T08:31:38.004Z,33.36
2017-08-01T08:32:38.101Z,33.51
2017-08-01T08:33:38.249Z,33.7
2017-08-01T08:34:37.995Z,33.91
2017-08-01T08:35:37.691Z,33.77
2017-08-01T08:36:38.001Z,33.4
2017-08-01T08:37:37.998Z,33.22
2017-08-01T08:38:37.794Z,33.16
2017-08-01T08:39:38.000Z,32.91
2017-08-01T08:40:38.000Z,32.97
2017-08-01T08:41:38.197Z,33.19
2017-08-01T08:42:38.098Z,33.13
2017-08-01T08:43:37.997Z,33.19
2017-08-01T08:44:37.691Z,33.01
2017-08-01T08:45:38.006Z,32.67
2017-08-01T08:46:37.999Z,32.22
2017-08-01T08:47:37.992Z,31.87
2017-08-01T08:48:38.146Z,31.63
2017-08-01T08:49:37.994Z,31.28
2017-08-01T08:50:37.996Z,31.08
2017-08-01T08:51:38.108Z,30.91
2017-08-01T08:52:38.000Z,30.78
2017-08-01T08:53:37.995Z,30.73
2017-08-01T08:54:37.994Z,30.65
2017-08-01T08:55:37.995Z,30.63
2017-08-01T08:56:37.998Z,30.59
2017-08-01T08:57:37.993Z,30.61
2017-08-01T08:58:37.988Z,30.59
2017-08-01T08:59:38.090Z,30.7
2017-08-01T09:00:37.785Z,30.73
2017-08-01T09:01:37.991Z,30.69
2017-08-01T09:02:38.088Z,30.78
2017-08-01T09:03:37.683Z,30.63
2017-08-01T09:04:38.198Z,30.54
2017-08-01T09:05:37.677Z,30.4
2017-08-01T09:06:38.087Z,30.52
2017-08-01T09:07:37.989Z,30.44
2017-08-01T09:08:37.990Z,30.52
2017-08-01T09:09:37.984Z,30.62
2017-08-01T09:10:37.986Z,30.7
2017-08-01T09:11:37.985Z,30.7
2017-08-01T09:12:37.985Z,30.7
2017-08-01T09:13:37.984Z,30.93
2017-08-01T09:14:37.986Z,30.99
2017-08-01T09:15:37.980Z,30.96
2017-08-01T09:16:37.984Z,30.99
2017-08-01T09:17:37.987Z,30.91
2017-08-01T09:18:38.083Z,30.81
2017-08-01T09:19:37.978Z,30.85
2017-08-01T09:20:37.683Z,30.88
2017-08-01T09:21:37.982Z,30.99
2017-08-01T09:22:37.679Z,30.96
2017-08-01T09:23:38.088Z,30.83
2017-08-01T09:24:37.980Z,30.85
2017-08-01T09:25:38.080Z,30.76
2017-08-01T09:26:37.975Z,30.63
2017-08-01T09:27:37.980Z,30.56
2017-08-01T09:28:37.980Z,30.4
2017-08-01T09:29:37.997Z,30.29
2017-08-01T09:30:38.084Z,30.2
2017-08-01T09:31:37.767Z,30.13
2017-08-01T09:32:38.072Z,30.01
2017-08-01T09:33:37.976Z,29.96
2017-08-01T09:34:37.975Z,29.95
2017-08-01T09:35:37.667Z,29.96
2017-08-01T09:36:38.121Z,30.02
2017-08-01T09:37:38.075Z,30.13
2017-08-01T09:38:37.973Z,30.2
2017-08-01T09:39:37.967Z,30.35
2017-08-01T09:40:38.069Z,30.4
2017-08-01T09:41:37.974Z,30.36
2017-08-01T09:42:37.978Z,30.2
2017-08-01T09:43:37.971Z,30.18
2017-08-01T09:44:37.970Z,30.08
2017-08-01T09:45:37.673Z,30.08
2017-08-01T09:46:37.968Z,30.08
2017-08-01T09:47:38.117Z,30.08
2017-08-01T09:48:37.963Z,30.08
2017-08-01T09:49:37.970Z,30.13
2017-08-01T09:50:37.967Z,30.14
2017-08-01T09:51:37.968Z,30.26
2017-08-01T09:52:37.966Z,30.24
2017-08-01T09:53:38.113Z,30.18
2017-08-01T09:54:37.972Z,30.26
2017-08-01T09:55:37.968Z,30.43
2017-08-01T09:56:37.963Z,30.46
2017-08-01T09:57:37.963Z,30.58
2017-08-01T09:58:38.160Z,30.65
2017-08-01T09:59:37.962Z,30.81
2017-08-01T10:00:37.963Z,30.7
2017-08-01T10:01:38.060Z,30.62
2017-08-01T10:02:37.963Z,30.54
2017-08-01T10:03:37.753Z,30.54
2017-08-01T10:04:37.655Z,30.44
2017-08-01T10:05:38.111Z,30.46
2017-08-01T10:06:37.656Z,30.4
2017-08-01T10:07:37.957Z,30.38
2017-08-01T10:08:38.156Z,30.35
2017-08-01T10:09:38.058Z,30.36
2017-08-01T10:10:38.055Z,30.4
2017-08-01T10:11:37.956Z,30.35
2017-08-01T10:12:37.957Z,30.35
2017-08-01T10:13:37.953Z,30.44
2017-08-01T10:14:38.060Z,30.36
2017-08-01T10:15:38.056Z,30.4
2017-08-01T10:16:38.056Z,30.4
2017-08-01T10:17:37.954Z,30.33
2017-08-01T10:18:37.953Z,30.29
2017-08-01T10:19:38.051Z,30.32
2017-08-01T10:20:37.950Z,30.23
2017-08-01T10:21:37.951Z,30.21
2017-08-01T10:22:37.952Z,30.18
2017-08-01T10:23:37.643Z,30.18
2017-08-01T10:24:37.641Z,30.29
2017-08-01T10:25:37.950Z,30.31
2017-08-01T10:26:38.055Z,30.31
2017-08-01T10:27:37.948Z,30.35
2017-08-01T10:28:37.946Z,30.29
2017-08-01T10:29:37.645Z,30.36
2017-08-01T10:30:37.741Z,30.29
2017-08-01T10:31:38.061Z,30.38
2017-08-01T10:32:38.047Z,30.46
2017-08-01T10:33:37.941Z,30.44
2017-08-01T10:34:37.940Z,30.43
2017-08-01T10:35:37.939Z,30.43
2017-08-01T10:36:38.039Z,30.51
2017-08-01T10:37:38.211Z,30.55
2017-08-01T10:38:37.943Z,30.49
2017-08-01T10:39:37.941Z,30.48
2017-08-01T10:40:37.942Z,30.62
2017-08-01T10:41:37.942Z,30.58
2017-08-01T10:42:38.088Z,30.54
2017-08-01T10:43:37.930Z,30.46
2017-08-01T10:44:37.934Z,30.36
2017-08-01T10:45:37.643Z,30.52
2017-08-01T10:46:37.984Z,30.39
2017-08-01T10:47:38.032Z,30.48
2017-08-01T10:48:38.034Z,30.55
2017-08-01T10:49:37.928Z,30.55
2017-08-01T10:50:37.927Z,30.55
2017-08-01T10:51:37.929Z,30.58
2017-08-01T10:52:38.028Z,30.51
2017-08-01T10:53:37.929Z,30.51
2017-08-01T10:54:37.927Z,30.58
2017-08-01T10:55:37.922Z,30.63
2017-08-01T10:56:37.623Z,30.62
2017-08-01T10:57:37.926Z,30.65
2017-08-01T10:58:37.818Z,30.73
2017-08-01T10:59:37.621Z,30.78
2017-08-01T11:00:37.919Z,30.81
2017-08-01T11:01:37.618Z,30.88
2017-08-01T11:02:38.016Z,30.83
2017-08-01T11:03:37.612Z,30.92
2017-08-01T11:04:37.920Z,30.89
2017-08-01T11:05:37.918Z,30.95
2017-08-01T11:06:37.916Z,30.95
2017-08-01T11:07:37.923Z,30.93
2017-08-01T11:08:37.912Z,30.89
2017-08-01T11:09:37.608Z,30.91
2017-08-01T11:10:38.015Z,30.83
2017-08-01T11:11:37.912Z,30.86
2017-08-01T11:12:38.014Z,30.81
2017-08-01T11:13:38.057Z,30.83
2017-08-01T11:14:37.905Z,30.83
2017-08-01T11:15:37.601Z,30.71
2017-08-01T11:16:37.601Z,30.85
2017-08-01T11:17:37.915Z,30.73
2017-08-01T11:18:37.721Z,30.71
2017-08-01T11:19:37.601Z,30.67
2017-08-01T11:20:37.908Z,30.71
2017-08-01T11:21:37.901Z,30.62
2017-08-01T11:22:37.696Z,30.73
2017-08-01T11:23:38.101Z,30.63
2017-08-01T11:24:37.697Z,30.65
2017-08-01T11:25:37.595Z,30.71
2017-08-01T11:26:37.593Z,30.69
2017-08-01T11:27:37.591Z,30.7
2017-08-01T11:28:37.284Z,30.65
2017-08-01T11:29:38.095Z,30.63
2017-08-01T11:30:37.600Z,30.62
2017-08-01T11:31:37.591Z,30.67
2017-08-01T11:32:37.894Z,30.62
2017-08-01T11:33:37.902Z,30.67
2017-08-01T11:34:37.892Z,30.69
2017-08-01T11:35:37.889Z,30.58
2017-08-01T11:36:38.044Z,30.62
2017-08-01T11:37:37.892Z,30.55
2017-08-01T11:38:37.581Z,30.56
2017-08-01T11:39:37.891Z,30.59
2017-08-01T11:40:37.893Z,30.61
2017-08-01T11:41:38.043Z,30.55
2017-08-01T11:42:37.983Z,30.63
2017-08-01T11:43:37.577Z,30.67
2017-08-01T11:44:37.579Z,30.56
2017-08-01T11:45:37.983Z,30.54
2017-08-01T11:46:37.881Z,30.54
2017-08-01T11:47:37.880Z,30.61
2017-08-01T11:48:37.879Z,30.52
2017-08-01T11:49:37.982Z,30.59
2017-08-01T11:50:37.885Z,30.58
2017-08-01T11:51:37.879Z,30.54
2017-08-01T11:52:37.569Z,30.55
2017-08-01T11:53:37.877Z,30.52
2017-08-01T11:54:37.973Z,30.63
2017-08-01T11:55:37.873Z,30.58
2017-08-01T11:56:37.979Z,30.54
2017-08-01T11:57:37.573Z,30.61
2017-08-01T11:58:38.008Z,30.62
2017-08-01T11:59:37.563Z,30.63
2017-08-01T12:00:37.968Z,30.59
2017-08-01T12:01:37.972Z,30.7
2017-08-01T12:02:37.564Z,30.63
2017-08-01T12:03:37.967Z,30.74
2017-08-01T12:04:37.407Z,30.74
2017-08-01T12:05:37.868Z,30.78
2017-08-01T12:06:37.965Z,30.85
2017-08-01T12:07:37.863Z,30.83
2017-08-01T12:08:37.861Z,30.89
2017-08-01T12:09:37.864Z,30.96
2017-08-01T12:10:37.554Z,30.95
2017-08-01T12:11:37.862Z,30.95
2017-08-01T12:12:37.862Z,31
2017-08-01T12:13:37.857Z,31.02
2017-08-01T12:14:37.652Z,30.98
2017-08-01T12:15:37.856Z,30.89
2017-08-01T12:16:37.550Z,30.89
2017-08-01T12:17:37.860Z,30.8
2017-08-01T12:18:37.974Z,30.86
2017-08-01T12:19:37.549Z,30.93
2017-08-01T12:20:37.547Z,30.99
2017-08-01T12:21:37.546Z,30.96
2017-08-01T12:22:37.851Z,30.99
2017-08-01T12:23:37.849Z,30.96
2017-08-01T12:24:37.849Z,30.99
2017-08-01T12:25:37.852Z,30.95
2017-08-01T12:26:37.643Z,30.99
2017-08-01T12:27:37.954Z,31
2017-08-01T12:28:37.640Z,31.02
2017-08-01T12:29:37.847Z,31.1
2017-08-01T12:30:37.845Z,31.22
2017-08-01T12:31:37.942Z,31.25
2017-08-01T12:32:37.543Z,31.1
2017-08-01T12:33:37.849Z,31.14
2017-08-01T12:34:37.846Z,31.2
2017-08-01T12:35:37.839Z,31.1
2017-08-01T12:36:37.836Z,31.13
2017-08-01T12:37:37.833Z,31.2
2017-08-01T12:38:37.845Z,31.08
2017-08-01T12:39:37.842Z,31.1
2017-08-01T12:40:37.939Z,31.11
2017-08-01T12:41:37.985Z,31.07
2017-08-01T12:42:37.835Z,30.98
2017-08-01T12:43:37.837Z,30.98
2017-08-01T12:44:37.830Z,31
2017-08-01T12:45:37.829Z,30.96
2017-08-01T12:46:37.931Z,30.98
2017-08-01T12:47:37.962Z,30.98
2017-08-01T12:48:37.827Z,30.98
2017-08-01T12:49:37.928Z,31.14
2017-08-01T12:50:37.831Z,31.07
2017-08-01T12:51:37.927Z,31.11
2017-08-01T12:52:37.838Z,31.17
2017-08-01T12:53:38.025Z,31.14
2017-08-01T12:54:37.826Z,31.13
2017-08-01T12:55:37.817Z,31.14